Time;durP1;ratioP1;P1;durP2;ratioP2;P2;SDS_P1;SDS_P2;PMS_P1;PMS_P2;Temp;Humidity;BMP_temperature;BMP_pressure;BME280_temperature;BME280_humidity;BME280_pressure;Samples;Min_cycle;Max_cycle;Signal;HPM_P1;HPM_P2
2021/01/23 00:00:52;;;;;;;0.90;0.88;;;3.50;83.00;;;;;;5053815;28;20025;-80
2021/01/23 00:03:18;;;;;;;2.63;1.70;;;3.40;83.30;;;;;;5055236;28;20143;-79
2021/01/23 00:05:45;;;;;;;2.60;1.35;;;3.40;84.20;;;;;;5055204;28;20021;-77
2021/01/23 00:08:10;;;;;;;1.48;0.85;;;3.30;84.70;;;;;;5055229;28;20040;-80
2021/01/23 00:10:36;;;;;;;2.92;1.83;;;3.10;85.50;;;;;;5053479;28;20509;-72
2021/01/23 00:13:01;;;;;;;3.40;1.73;;;3.10;86.00;;;;;;5054726;28;20029;-72
2021/01/23 00:15:27;;;;;;;1.38;0.90;;;3.10;86.00;;;;;;5054812;28;20099;-72
2021/01/23 00:17:52;;;;;;;2.58;1.55;;;3.10;85.90;;;;;;5054755;28;20087;-72
2021/01/23 00:20:18;;;;;;;3.00;1.65;;;3.10;86.10;;;;;;5054641;28;20078;-72
2021/01/23 00:22:43;;;;;;;2.58;1.83;;;3.10;86.00;;;;;;5054678;28;20469;-72
2021/01/23 00:25:09;;;;;;;1.10;0.85;;;3.10;86.00;;;;;;5054896;28;20465;-72
2021/01/23 00:27:35;;;;;;;0.60;0.40;;;3.10;85.80;;;;;;5054977;28;20047;-71
2021/01/23 00:30:01;;;;;;;0.20;0.20;;;3.00;85.80;;;;;;5054511;28;20025;-72
2021/01/23 00:32:26;;;;;;;0.30;0.30;;;2.90;86.10;;;;;;5054715;28;20037;-71
2021/01/23 00:34:52;;;;;;;0.25;0.17;;;2.80;86.30;;;;;;5054393;28;20377;-72
2021/01/23 00:37:17;;;;;;;0.10;0.10;;;2.70;86.90;;;;;;5054442;28;20108;-71
2021/01/23 00:39:43;;;;;;;0.10;0.10;;;2.60;87.70;;;;;;5054211;28;20029;-71
2021/01/23 00:42:09;;;;;;;0.25;0.20;;;2.50;88.40;;;;;;5054313;28;20021;-72
2021/01/23 00:44:35;;;;;;;0.63;0.20;;;2.50;88.70;;;;;;5054082;28;20529;-72
2021/01/23 00:47:00;;;;;;;0.20;0.20;;;2.60;88.60;;;;;;5054264;28;20029;-72
2021/01/23 00:49:26;;;;;;;0.30;0.30;;;2.60;88.50;;;;;;5054036;28;20028;-72
2021/01/23 00:51:51;;;;;;;0.30;0.30;;;2.70;88.60;;;;;;5054150;28;20068;-72
2021/01/23 00:54:17;;;;;;;0.20;0.20;;;2.50;88.90;;;;;;5054061;28;20020;-74
2021/01/23 00:56:42;;;;;;;0.38;0.20;;;2.50;89.30;;;;;;5053892;28;20507;-72
2021/01/23 00:59:08;;;;;;;0.10;0.10;;;2.60;89.20;;;;;;5053987;28;20087;-71
2021/01/23 01:01:33;;;;;;;0.10;0.10;;;2.50;87.90;;;;;;5053420;28;20072;-71
2021/01/23 01:03:59;;;;;;;0.68;0.50;;;2.50;87.50;;;;;;5053497;28;20420;-72
2021/01/23 01:06:25;;;;;;;0.88;0.30;;;2.50;87.80;;;;;;5053765;28;20021;-72
2021/01/23 01:08:50;;;;;;;0.20;0.20;;;2.40;88.30;;;;;;5053766;28;20112;-72
2021/01/23 01:11:16;;;;;;;0.05;0.05;;;2.30;88.50;;;;;;5053720;28;20061;-72
2021/01/23 01:13:41;;;;;;;0.30;0.03;;;2.20;88.10;;;;;;5053879;28;20029;-72
2021/01/23 01:16:07;;;;;;;0.20;0.00;;;2.30;88.40;;;;;;5053889;28;20079;-72
2021/01/23 01:18:32;;;;;;;0.32;0.10;;;2.20;88.20;;;;;;5053829;28;20033;-72
2021/01/23 01:20:58;;;;;;;1.65;0.03;;;2.20;88.60;;;;;;5053740;28;20432;-75
2021/01/23 01:23:23;;;;;;;0.00;0.00;;;2.10;88.40;;;;;;5053728;28;20032;-73
2021/01/23 01:25:49;;;;;;;0.10;0.10;;;2.10;88.50;;;;;;5053708;28;20029;-74
2021/01/23 01:28:14;;;;;;;0.28;0.10;;;2.00;88.70;;;;;;5053916;28;20043;-73
2021/01/23 01:30:41;;;;;;;0.10;0.10;;;2.00;89.10;;;;;;5052353;28;20389;-72
2021/01/23 01:33:09;;;;;;;0.13;0.10;;;2.00;89.40;;;;;;5053539;28;20037;-72
2021/01/23 01:35:35;;;;;;;0.10;0.10;;;2.10;89.80;;;;;;5053514;28;20052;-72
2021/01/23 01:38:01;;;;;;;0.00;0.00;;;2.20;89.50;;;;;;5053602;28;20473;-71
2021/01/23 01:40:26;;;;;;;0.10;0.10;;;2.20;88.50;;;;;;5053422;28;20040;-72
2021/01/23 01:42:52;;;;;;;0.57;0.10;;;2.20;88.20;;;;;;5053448;28;20021;-72
2021/01/23 01:45:17;;;;;;;0.32;0.13;;;2.10;88.50;;;;;;5053365;28;20116;-71
2021/01/23 01:47:43;;;;;;;0.88;0.10;;;2.10;88.80;;;;;;5053288;28;20032;-71
2021/01/23 01:50:10;;;;;;;0.20;0.20;;;2.10;88.80;;;;;;5053140;28;20048;-73
2021/01/23 01:52:35;;;;;;;0.10;0.10;;;2.10;89.60;;;;;;5052915;28;20024;-73
2021/01/23 01:55:01;;;;;;;0.10;0.10;;;2.20;88.30;;;;;;5054514;28;20025;-73
2021/01/23 01:57:26;;;;;;;0.57;0.20;;;2.20;88.20;;;;;;5054671;28;20024;-73
2021/01/23 01:59:52;;;;;;;0.20;0.20;;;2.00;88.40;;;;;;5053447;28;20029;-74
2021/01/23 02:02:54;;;;;;;0.52;0.10;;;1.80;89.50;;;;;;5053270;28;20083;-73
2021/01/23 02:05:39;;;;;;;0.20;0.20;;;1.50;90.30;;;;;;5051767;28;20512;-74
2021/01/23 02:08:29;;;;;;;0.20;0.20;;;1.60;91.20;;;;;;5053143;28;20024;-73
2021/01/23 02:11:06;;;;;;;0.20;0.20;;;1.70;91.20;;;;;;5052990;28;20033;-73
2021/01/23 02:13:40;;;;;;;0.20;0.20;;;1.70;89.90;;;;;;5052830;28;20087;-73
2021/01/23 02:16:11;;;;;;;0.20;0.20;;;1.70;90.00;;;;;;5053030;28;20017;-74
2021/01/23 02:19:06;;;;;;;0.20;0.10;;;1.70;89.90;;;;;;5053011;28;20025;-72
2021/01/23 02:22:01;;;;;;;0.85;0.45;;;1.50;90.30;;;;;;5052753;28;20032;-73
2021/01/23 02:24:28;;;;;;;0.65;0.20;;;1.50;91.30;;;;;;5052944;28;20028;-74
2021/01/23 02:27:12;;;;;;;0.30;0.10;;;1.50;91.20;;;;;;5052818;28;20025;-74
2021/01/23 02:30:10;;;;;;;0.20;0.10;;;1.50;91.00;;;;;;5052861;28;20017;-73
2021/01/23 02:32:38;;;;;;;0.20;0.10;;;1.50;90.80;;;;;;5051154;28;20033;-73
2021/01/23 02:35:08;;;;;;;0.32;0.10;;;1.40;91.10;;;;;;5052808;28;20040;-73
2021/01/23 02:37:35;;;;;;;0.75;0.30;;;1.50;91.20;;;;;;5052026;28;20033;-74
2021/01/23 02:40:01;;;;;;;0.20;0.20;;;1.50;90.90;;;;;;5052319;28;20028;-72
2021/01/23 02:42:27;;;;;;;0.10;0.10;;;1.50;90.90;;;;;;5052276;28;20052;-73
2021/01/23 02:44:52;;;;;;;0.10;0.10;;;1.40;91.20;;;;;;5052378;28;20060;-73
2021/01/23 02:47:19;;;;;;;0.10;0.10;;;1.30;90.50;;;;;;5052523;28;20025;-73
2021/01/23 02:49:44;;;;;;;0.55;0.30;;;1.30;90.80;;;;;;5052497;28;20025;-73
2021/01/23 02:52:23;;;;;;;0.30;0.30;;;1.30;91.20;;;;;;5052397;28;20037;-73
2021/01/23 02:55:04;;;;;;;0.13;0.10;;;1.40;90.90;;;;;;5052610;28;20082;-74
2021/01/23 02:57:30;;;;;;;0.30;0.17;;;1.50;90.20;;;;;;5052500;28;20533;-74
2021/01/23 03:00:03;;;;;;;0.10;0.10;;;1.60;89.70;;;;;;5052617;28;20087;-73
2021/01/23 03:02:30;;;;;;;0.20;0.20;;;1.60;88.80;;;;;;5052265;28;20052;-73
2021/01/23 03:04:58;;;;;;;0.50;0.20;;;1.60;88.60;;;;;;5056308;28;20474;-73
2021/01/23 03:07:24;;;;;;;0.10;0.10;;;1.70;88.50;;;;;;5056344;28;20367;-73
2021/01/23 03:09:49;;;;;;;0.22;0.22;;;1.40;89.10;;;;;;5061735;28;20033;-72
2021/01/23 03:12:15;;;;;;;0.30;0.30;;;1.30;90.10;;;;;;5062624;28;20037;-73
2021/01/23 03:14:41;;;;;;;0.30;0.30;;;1.30;90.40;;;;;;5057349;28;20021;-73
2021/01/23 03:17:07;;;;;;;0.25;0.25;;;1.30;90.80;;;;;;5056199;28;20032;-73
2021/01/23 03:19:32;;;;;;;0.47;0.40;;;1.20;91.20;;;;;;5055883;28;20025;-73
2021/01/23 03:21:58;;;;;;;0.47;0.30;;;1.30;91.20;;;;;;5055978;28;20044;-73
2021/01/23 03:24:24;;;;;;;0.30;0.22;;;1.40;91.10;;;;;;5055853;28;20036;-73
2021/01/23 03:26:50;;;;;;;0.13;0.13;;;1.50;90.90;;;;;;5056100;28;20021;-73
2021/01/23 03:29:17;;;;;;;0.20;0.20;;;1.50;90.50;;;;;;5055805;28;20029;-73
2021/01/23 03:31:44;;;;;;;0.22;0.20;;;1.60;89.80;;;;;;5055760;28;20493;-73
2021/01/23 03:34:09;;;;;;;0.45;0.30;;;1.70;89.50;;;;;;5055671;28;20033;-78
2021/01/23 03:36:35;;;;;;;0.20;0.20;;;1.70;89.40;;;;;;5055628;28;20032;-76
2021/01/23 03:39:03;;;;;;;1.08;0.10;;;1.70;88.20;;;;;;5055683;28;20412;-78
2021/01/23 03:41:28;;;;;;;0.10;0.10;;;1.70;87.70;;;;;;5055760;28;20021;-78
2021/01/23 03:43:54;;;;;;;0.43;0.00;;;1.70;87.30;;;;;;5055779;28;20039;-79
2021/01/23 03:46:19;;;;;;;0.50;0.20;;;1.70;87.00;;;;;;5055523;28;20025;-79
2021/01/23 03:48:45;;;;;;;0.00;0.00;;;1.70;86.80;;;;;;5056769;28;20025;-73
2021/01/23 03:51:10;;;;;;;0.10;0.10;;;1.70;86.20;;;;;;5072309;28;20418;-74
2021/01/23 03:53:36;;;;;;;0.10;0.10;;;1.60;85.90;;;;;;5063489;28;20044;-78
2021/01/23 03:56:02;;;;;;;0.43;0.10;;;1.70;85.90;;;;;;5056562;28;20060;-78
2021/01/23 03:58:27;;;;;;;0.20;0.20;;;1.70;85.50;;;;;;5055561;28;20029;-78
2021/01/23 04:00:53;;;;;;;0.10;0.10;;;1.70;85.20;;;;;;5055222;28;20029;-78
2021/01/23 04:03:19;;;;;;;0.40;0.20;;;1.70;85.70;;;;;;5055256;28;20021;-78
2021/01/23 04:05:45;;;;;;;0.77;0.25;;;1.70;85.50;;;;;;5055107;28;20028;-80
2021/01/23 04:08:10;;;;;;;0.32;0.20;;;1.80;85.10;;;;;;5055201;28;20031;-80
2021/01/23 04:10:37;;;;;;;0.65;0.30;;;1.80;84.30;;;;;;5055031;28;20524;-81
2021/01/23 04:13:03;;;;;;;0.40;0.30;;;1.80;84.40;;;;;;5055035;28;20405;-81
2021/01/23 04:15:28;;;;;;;1.17;0.40;;;1.70;84.70;;;;;;5053262;28;20043;-79
2021/01/23 04:17:54;;;;;;;1.30;0.40;;;1.70;84.80;;;;;;5054843;28;20025;-76
2021/01/23 04:20:20;;;;;;;0.40;0.20;;;1.70;85.20;;;;;;5054581;28;20024;-77
2021/01/23 04:22:46;;;;;;;0.40;0.30;;;1.70;85.40;;;;;;5054823;28;20025;-80
2021/01/23 04:25:12;;;;;;;0.55;0.30;;;1.70;85.70;;;;;;5055024;28;20021;-80
2021/01/23 04:27:37;;;;;;;0.98;0.40;;;1.70;85.00;;;;;;5053424;28;20465;-79
2021/01/23 04:30:05;;;;;;;0.73;0.30;;;1.70;85.00;;;;;;5053403;28;20052;-78
2021/01/23 04:32:30;;;;;;;0.52;0.30;;;1.60;85.60;;;;;;5054642;28;20413;-80
2021/01/23 04:34:56;;;;;;;0.32;0.30;;;1.70;85.60;;;;;;5054557;28;20025;-79
2021/01/23 04:37:21;;;;;;;1.02;0.30;;;1.80;85.40;;;;;;5054559;28;20036;-78
2021/01/23 04:39:47;;;;;;;1.20;0.40;;;1.80;84.40;;;;;;5053194;28;20021;-78
2021/01/23 04:42:12;;;;;;;0.20;0.20;;;1.80;84.50;;;;;;5054412;28;20478;-77
2021/01/23 04:44:40;;;;;;;0.68;0.30;;;2.00;83.80;;;;;;5054141;28;20420;-77
2021/01/23 04:47:05;;;;;;;0.43;0.20;;;2.00;83.80;;;;;;5054302;28;20062;-73
2021/01/23 04:49:33;;;;;;;0.55;0.10;;;2.00;83.10;;;;;;5054356;28;20029;-78
2021/01/23 04:52:02;;;;;;;1.20;0.20;;;2.10;83.00;;;;;;5054234;28;20052;-79
2021/01/23 04:54:29;;;;;;;1.73;0.63;;;2.10;82.80;;;;;;5054063;28;20025;-79
2021/01/23 04:56:54;;;;;;;1.23;0.40;;;2.10;82.20;;;;;;5054282;28;20029;-72
2021/01/23 04:59:20;;;;;;;0.38;0.30;;;2.20;82.10;;;;;;5054065;28;20051;-78
2021/01/23 05:02:23;;;;;;;0.82;0.30;;;2.20;81.50;;;;;;5053804;28;20059;-78
2021/01/23 05:05:01;;;;;;;4.10;1.73;;;2.20;81.20;;;;;;5054152;28;20123;-79
2021/01/23 05:07:34;;;;;;;1.85;0.52;;;2.20;81.30;;;;;;5054012;28;20052;-79
2021/01/23 05:10:24;;;;;;;0.73;0.32;;;2.30;81.20;;;;;;5053943;28;20393;-78
2021/01/23 05:12:51;;;;;;;0.50;0.40;;;2.30;81.00;;;;;;5053852;28;20431;-80
2021/01/23 05:15:44;;;;;;;1.15;0.30;;;2.40;81.10;;;;;;5053974;28;20028;-80
2021/01/23 05:18:11;;;;;;;0.45;0.35;;;2.50;79.60;;;;;;5050385;28;20190;-81
2021/01/23 05:20:43;;;;;;;1.08;0.57;;;2.40;78.90;;;;;;5053770;28;20025;-79
2021/01/23 05:23:13;;;;;;;2.03;1.45;;;2.40;78.90;;;;;;5053752;28;20021;-78
2021/01/23 05:25:39;;;;;;;0.57;0.50;;;2.30;78.80;;;;;;5052903;28;20021;-79
2021/01/23 05:28:06;;;;;;;0.60;0.40;;;2.30;78.10;;;;;;5053520;28;20542;-79
2021/01/23 05:30:52;;;;;;;2.30;0.50;;;2.30;77.80;;;;;;5053451;28;20071;-78
2021/01/23 05:33:26;;;;;;;;;;;2.30;78.20;;;;;;5053806;28;20029;-78
2021/01/23 05:36:02;;;;;;;0.73;0.60;;;2.20;78.20;;;;;;5053592;28;19904;-77
2021/01/23 05:38:35;;;;;;;3.80;1.13;;;2.10;78.20;;;;;;5053450;28;20053;-77
2021/01/23 05:41:03;;;;;;;0.75;0.70;;;2.10;77.80;;;;;;5053476;28;20033;-78
2021/01/23 05:43:37;;;;;;;1.05;0.80;;;2.10;78.10;;;;;;5053269;28;20031;-75
2021/01/23 05:46:08;;;;;;;0.63;0.63;;;2.20;78.30;;;;;;5053519;28;20021;-79
2021/01/23 05:48:38;;;;;;;0.95;0.52;;;2.20;77.80;;;;;;5053308;28;20028;-79
2021/01/23 05:51:05;;;;;;;0.40;0.40;;;2.20;78.00;;;;;;5053443;28;20032;-79
2021/01/23 05:53:30;;;;;;;1.15;0.57;;;2.30;77.90;;;;;;5053087;28;20040;-78
2021/01/23 05:55:59;;;;;;;0.88;0.60;;;2.30;77.90;;;;;;5053409;28;20083;-77
2021/01/23 05:58:30;;;;;;;2.78;0.68;;;2.30;78.70;;;;;;5052933;28;20029;-79
2021/01/23 06:00:58;;;;;;;1.05;0.70;;;2.40;79.40;;;;;;5052999;28;20033;-79
2021/01/23 06:03:33;;;;;;;0.70;0.70;;;2.50;79.70;;;;;;5053167;28;20029;-79
2021/01/23 06:05:58;;;;;;;1.65;0.90;;;2.40;79.40;;;;;;5053313;28;20028;-77
2021/01/23 06:08:34;;;;;;;0.55;0.50;;;2.40;79.80;;;;;;5053108;28;20033;-79
2021/01/23 06:11:00;;;;;;;3.35;1.20;;;2.50;80.00;;;;;;5053108;28;20028;-79
2021/01/23 06:13:37;;;;;;;1.40;1.10;;;2.50;80.00;;;;;;5052884;28;20501;-77
2021/01/23 06:16:03;;;;;;;0.75;0.63;;;2.50;80.00;;;;;;5052902;28;20090;-76
2021/01/23 06:18:30;;;;;;;1.30;0.90;;;2.40;79.70;;;;;;5052821;28;20021;-79
2021/01/23 06:21:02;;;;;;;1.83;1.00;;;2.40;79.70;;;;;;5052870;28;20021;-78
2021/01/23 06:23:51;;;;;;;1.40;1.10;;;2.40;80.50;;;;;;5052696;28;20028;-79
2021/01/23 06:26:17;;;;;;;2.58;1.00;;;2.40;80.00;;;;;;5052961;28;20029;-78
2021/01/23 06:28:43;;;;;;;1.60;1.10;;;2.40;80.20;;;;;;5052814;28;20017;-78
2021/01/23 06:31:26;;;;;;;1.88;1.00;;;2.40;80.30;;;;;;5052686;28;20032;-78
2021/01/23 06:33:52;;;;;;;2.70;1.33;;;2.40;80.30;;;;;;5052681;28;20371;-79
2021/01/23 06:36:19;;;;;;;2.58;0.95;;;2.40;80.30;;;;;;5052767;28;20070;-78
2021/01/23 06:39:01;;;;;;;1.30;1.00;;;2.40;80.40;;;;;;5056401;28;20029;-79
2021/01/23 06:41:28;;;;;;;1.58;1.15;;;2.50;80.20;;;;;;5056610;28;20130;-77
2021/01/23 06:44:15;;;;;;;1.25;0.88;;;2.50;80.20;;;;;;5056729;28;20022;-79
2021/01/23 06:46:50;;;;;;;1.00;0.68;;;2.50;80.30;;;;;;5056628;28;20521;-79
2021/01/23 06:49:17;;;;;;;1.23;0.60;;;2.50;81.10;;;;;;5056788;28;20096;-77
2021/01/23 06:51:43;;;;;;;1.33;0.47;;;2.50;80.60;;;;;;5067616;28;20092;-71
2021/01/23 06:54:16;;;;;;;2.85;0.90;;;2.50;80.60;;;;;;5071844;28;20162;-77
2021/01/23 06:56:43;;;;;;;1.42;1.00;;;2.50;80.50;;;;;;5057669;28;20025;-80
2021/01/23 06:59:20;;;;;;;1.27;0.95;;;2.50;80.60;;;;;;5056545;28;20453;-73
2021/01/23 07:01:46;;;;;;;2.33;0.90;;;2.60;80.60;;;;;;5055999;28;20045;-80
2021/01/23 07:04:12;;;;;;;1.75;1.20;;;2.60;80.70;;;;;;5056358;28;20047;-80
2021/01/23 07:06:37;;;;;;;1.88;1.48;;;2.60;80.70;;;;;;5056211;28;20021;-79
2021/01/23 07:09:03;;;;;;;3.60;1.38;;;2.60;80.70;;;;;;5056124;28;20036;-80
2021/01/23 07:11:29;;;;;;;3.95;1.73;;;2.70;80.70;;;;;;5054680;28;20017;-75
2021/01/23 07:13:57;;;;;;;1.73;1.08;;;2.70;80.50;;;;;;5056330;28;20384;-75
2021/01/23 07:16:23;;;;;;;1.90;1.10;;;2.70;80.30;;;;;;5056111;28;20025;-74
2021/01/23 07:19:00;;;;;;;1.35;1.00;;;2.70;80.40;;;;;;5056137;28;20082;-78
2021/01/23 07:21:28;;;;;;;1.40;1.02;;;2.80;80.20;;;;;;5055944;28;20104;-72
2021/01/23 07:23:54;;;;;;;1.13;0.85;;;2.80;80.20;;;;;;5055795;28;20105;-72
2021/01/23 07:26:21;;;;;;;1.13;1.02;;;2.80;80.20;;;;;;5055661;28;20025;-72
2021/01/23 07:28:54;;;;;;;1.42;0.90;;;2.90;79.80;;;;;;5055556;28;20497;-72
2021/01/23 07:31:25;;;;;;;1.92;1.02;;;2.90;79.70;;;;;;5055371;28;20028;-73
2021/01/23 07:33:51;;;;;;;2.08;0.90;;;2.90;80.00;;;;;;5054414;28;20158;-72
2021/01/23 07:36:38;;;;;;;2.42;0.88;;;2.90;79.90;;;;;;5055516;28;20032;-73
2021/01/23 07:39:18;;;;;;;1.73;1.10;;;3.00;79.70;;;;;;5054165;28;20037;-72
2021/01/23 07:41:55;;;;;;;1.33;0.93;;;3.00;79.60;;;;;;5055433;28;20021;-71
2021/01/23 07:44:25;;;;;;;1.27;1.13;;;3.00;79.60;;;;;;5055466;28;20021;-72
2021/01/23 07:46:50;;;;;;;2.05;0.93;;;3.00;79.50;;;;;;5055419;28;20520;-72
2021/01/23 07:49:22;;;;;;;1.60;0.93;;;3.00;79.70;;;;;;5054504;28;20033;-72
2021/01/23 07:51:48;;;;;;;1.63;0.85;;;3.00;79.50;;;;;;5055316;28;20032;-72
2021/01/23 07:54:14;;;;;;;2.95;0.80;;;3.10;79.50;;;;;;5055205;28;20033;-72
2021/01/23 07:56:51;;;;;;;1.73;0.98;;;3.10;79.40;;;;;;5055224;28;20036;-72
2021/01/23 07:59:17;;;;;;;2.28;1.58;;;3.10;79.30;;;;;;5055253;28;20025;-71
2021/01/23 08:01:42;;;;;;;2.60;0.95;;;3.20;79.40;;;;;;5054833;28;20055;-71
2021/01/23 08:04:30;;;;;;;3.88;0.90;;;3.20;79.60;;;;;;5055183;28;20404;-72
2021/01/23 08:07:24;;;;;;;0.80;0.70;;;3.30;80.20;;;;;;5055101;28;20025;-72
2021/01/23 08:10:22;;;;;;;2.78;1.42;;;3.40;79.40;;;;;;5061592;28;20025;-73
2021/01/23 08:12:50;;;;;;;2.42;1.70;;;3.50;78.70;;;;;;5012340;28;20397;-73
2021/01/23 08:15:29;;;;;;;4.95;1.63;;;3.50;78.00;;;;;;5053991;28;20032;-71
2021/01/23 08:17:56;;;;;;;3.20;1.80;;;3.50;77.20;;;;;;5054950;28;20025;-72
2021/01/23 08:20:36;;;;;;;2.65;1.83;;;3.60;77.20;;;;;;5054854;28;20439;-72
2021/01/23 08:23:04;;;;;;;1.67;1.40;;;3.70;77.10;;;;;;5055085;28;20021;-72
2021/01/23 08:25:49;;;;;;;1.42;1.33;;;3.70;76.50;;;;;;5053368;28;20025;-72
2021/01/23 08:28:23;;;;;;;3.67;1.20;;;3.80;76.20;;;;;;5054695;28;20029;-72
2021/01/23 08:30:49;;;;;;;14.80;2.05;;;4.00;76.80;;;;;;5052687;28;20086;-74
2021/01/23 08:33:14;;;;;;;4.10;1.27;;;4.10;79.10;;;;;;5052528;28;20039;-74
2021/01/23 08:35:42;;;;;;;4.63;1.20;;;4.60;84.10;;;;;;5052582;28;20033;-75
2021/01/23 08:38:09;;;;;;;3.03;0.98;;;5.30;81.30;;;;;;5054454;28;20377;-75
2021/01/23 08:40:35;;;;;;;3.47;1.23;;;5.70;75.90;;;;;;5052848;28;20120;-75
2021/01/23 08:43:01;;;;;;;1.55;1.00;;;6.00;71.80;;;;;;5054358;28;20103;-75
2021/01/23 08:45:27;;;;;;;3.08;1.15;;;6.20;69.80;;;;;;5052940;28;20060;-74
2021/01/23 08:47:52;;;;;;;3.25;2.30;;;6.20;68.30;;;;;;5053125;28;20021;-75
2021/01/23 08:50:18;;;;;;;5.32;2.45;;;6.10;66.50;;;;;;5052830;28;20021;-75
2021/01/23 08:52:44;;;;;;;2.38;1.70;;;6.60;66.90;;;;;;5052826;28;20481;-73
2021/01/23 08:55:10;;;;;;;4.22;1.90;;;7.10;65.10;;;;;;5054179;28;20021;-73
2021/01/23 08:57:36;;;;;;;5.97;2.55;;;7.10;62.10;;;;;;5054073;28;20040;-73
2021/01/23 09:00:04;;;;;;;2.90;1.88;;;6.80;61.60;;;;;;5059593;28;20096;-72
2021/01/23 09:02:30;;;;;;;2.63;1.38;;;6.60;62.50;;;;;;5064161;28;20461;-73
2021/01/23 09:04:55;;;;;;;3.47;1.38;;;6.40;63.40;;;;;;5056946;28;20104;-73
2021/01/23 09:07:21;;;;;;;5.80;3.17;;;6.30;64.30;;;;;;5053366;28;20108;-74
2021/01/23 09:09:47;;;;;;;5.03;2.70;;;6.10;65.20;;;;;;5053586;28;20378;-79
2021/01/23 09:12:13;;;;;;;4.05;2.17;;;6.00;66.00;;;;;;5053670;28;20056;-81
2021/01/23 09:14:38;;;;;;;3.92;2.17;;;5.90;66.80;;;;;;5053627;28;20059;-80
2021/01/23 09:17:04;;;;;;;4.07;2.47;;;5.90;67.40;;;;;;5053614;28;20071;-78
2021/01/23 09:19:30;;;;;;;4.38;2.38;;;5.80;67.90;;;;;;5053157;28;20025;-78
2021/01/23 09:21:56;;;;;;;3.72;1.80;;;5.80;67.80;;;;;;5053307;28;20104;-81
2021/01/23 09:24:21;;;;;;;4.30;2.38;;;5.70;67.60;;;;;;5054025;28;20025;-80
2021/01/23 09:26:47;;;;;;;4.18;2.78;;;5.80;67.70;;;;;;5053869;28;20126;-80
2021/01/23 09:29:13;;;;;;;5.40;2.38;;;5.90;67.80;;;;;;5054719;28;20029;-78
2021/01/23 09:31:39;;;;;;;3.50;2.15;;;5.90;67.10;;;;;;5054119;28;20052;-75
2021/01/23 09:34:05;;;;;;;5.00;2.38;;;6.00;66.20;;;;;;5053593;28;20106;-80
2021/01/23 09:36:32;;;;;;;3.05;1.90;;;6.00;66.50;;;;;;5053432;28;20045;-80
2021/01/23 09:38:57;;;;;;;5.45;3.20;;;6.00;66.70;;;;;;5053269;28;20104;-79
2021/01/23 09:41:23;;;;;;;5.20;3.42;;;6.10;66.40;;;;;;5052952;28;20104;-77
2021/01/23 09:43:49;;;;;;;5.20;3.50;;;6.00;66.00;;;;;;5053083;28;20021;-75
2021/01/23 09:46:14;;;;;;;4.88;2.40;;;6.10;66.30;;;;;;5053026;28;20031;-83
2021/01/23 09:48:40;;;;;;;2.97;1.50;;;6.20;65.90;;;;;;5052984;28;20032;-77
2021/01/23 09:51:05;;;;;;;2.05;1.77;;;6.20;65.60;;;;;;5052760;28;20025;-77
2021/01/23 09:53:31;;;;;;;2.17;1.20;;;6.20;65.90;;;;;;5052354;28;20055;-76
2021/01/23 09:55:57;;;;;;;2.35;1.50;;;6.10;66.30;;;;;;5052289;28;20079;-81
2021/01/23 09:58:22;;;;;;;2.08;1.50;;;6.10;66.30;;;;;;5052358;28;20033;-81
2021/01/23 10:00:49;;;;;;;4.55;1.85;;;6.20;66.30;;;;;;5052433;28;20502;-81
2021/01/23 10:03:15;;;;;;;3.05;1.38;;;6.20;66.00;;;;;;5052378;28;20461;-78
2021/01/23 10:05:41;;;;;;;2.75;1.67;;;6.30;65.40;;;;;;5052520;28;20021;-78
2021/01/23 10:08:07;;;;;;;5.53;1.85;;;6.30;65.10;;;;;;5052753;28;20112;-77
2021/01/23 10:10:32;;;;;;;2.80;1.70;;;6.40;64.90;;;;;;5053561;28;20041;-79
2021/01/23 10:12:58;;;;;;;2.03;1.20;;;6.50;64.90;;;;;;5053809;28;20033;-79
2021/01/23 10:15:24;;;;;;;2.13;0.95;;;6.60;64.70;;;;;;5060599;28;20021;-78
2021/01/23 10:17:50;;;;;;;1.52;0.90;;;6.70;64.10;;;;;;5061125;28;20030;-81
2021/01/23 10:20:15;;;;;;;2.97;1.17;;;6.80;63.60;;;;;;5052381;28;20025;-82
2021/01/23 10:22:41;;;;;;;2.08;1.17;;;6.90;63.50;;;;;;5052369;28;20366;-77
2021/01/23 10:25:07;;;;;;;2.60;1.05;;;7.10;63.10;;;;;;5052754;28;20527;-81
2021/01/23 10:27:33;;;;;;;2.08;1.20;;;7.20;62.90;;;;;;5052499;28;20028;-80
2021/01/23 10:29:59;;;;;;;2.53;1.30;;;7.40;62.80;;;;;;5052469;28;20418;-82
2021/01/23 10:32:24;;;;;;;2.35;1.02;;;7.50;62.30;;;;;;5052598;28;20041;-77
2021/01/23 10:34:50;;;;;;;1.63;1.13;;;7.70;61.80;;;;;;5053001;28;20049;-83
2021/01/23 10:37:16;;;;;;;3.45;0.82;;;7.80;60.90;;;;;;5052593;28;20025;-80
2021/01/23 10:39:41;;;;;;;4.78;1.30;;;7.90;60.00;;;;;;5052578;28;20059;-82
2021/01/23 10:42:07;;;;;;;1.90;1.13;;;8.10;59.60;;;;;;5052612;28;20260;-81
2021/01/23 10:44:38;;;;;;;2.42;1.05;;;8.20;59.10;;;;;;5052985;28;20037;-78
2021/01/23 10:47:06;;;;;;;2.25;0.93;;;8.20;58.10;;;;;;5052967;28;20382;-80
2021/01/23 10:49:31;;;;;;;2.13;1.38;;;8.30;57.70;;;;;;5053854;28;20488;-77
2021/01/23 10:51:57;;;;;;;2.45;1.33;;;8.20;57.80;;;;;;5053527;28;20025;-73
2021/01/23 10:54:23;;;;;;;2.67;1.25;;;8.20;58.20;;;;;;5053448;28;20032;-80
2021/01/23 10:56:48;;;;;;;3.70;1.80;;;8.20;58.40;;;;;;5055072;28;20032;-72
2021/01/23 10:59:14;;;;;;;2.55;1.60;;;8.20;58.80;;;;;;5053793;28;20033;-72
2021/01/23 11:01:39;;;;;;;4.47;1.77;;;8.20;58.80;;;;;;5055842;28;20100;-72
2021/01/23 11:04:05;;;;;;;5.75;2.00;;;8.30;59.30;;;;;;5054186;28;20111;-72
2021/01/23 11:06:32;;;;;;;3.65;2.08;;;8.30;58.00;;;;;;5052405;28;20100;-73
2021/01/23 11:08:57;;;;;;;4.75;2.25;;;8.40;58.10;;;;;;5052258;28;20489;-72
2021/01/23 11:11:24;;;;;;;8.68;2.85;;;8.40;58.10;;;;;;5052221;28;20059;-81
2021/01/23 11:13:49;;;;;;;2.53;2.15;;;8.40;57.70;;;;;;5051038;28;20405;-80
2021/01/23 11:16:15;;;;;;;4.45;2.20;;;8.40;57.60;;;;;;5052378;28;20013;-78
2021/01/23 11:18:40;;;;;;;5.68;2.25;;;8.60;57.70;;;;;;5051993;28;20021;-81
2021/01/23 11:21:08;;;;;;;3.33;1.88;;;8.80;57.70;;;;;;5051976;28;20486;-72
2021/01/23 11:23:33;;;;;;;2.55;1.92;;;9.00;57.60;;;;;;5052288;28;20029;-72
2021/01/23 11:25:59;;;;;;;2.58;1.90;;;9.00;57.10;;;;;;5055875;28;20486;-79
2021/01/23 11:28:24;;;;;;;5.22;1.65;;;9.30;56.80;;;;;;5056139;28;20491;-75
2021/01/23 11:30:53;;;;;;;3.47;1.77;;;9.40;55.90;;;;;;5056681;28;20044;-80
2021/01/23 11:33:22;;;;;;;5.80;2.30;;;9.50;55.80;;;;;;5055675;28;20033;-73
2021/01/23 11:35:48;;;;;;;7.25;2.03;;;9.70;55.50;;;;;;5055860;28;20021;-74
2021/01/23 11:38:14;;;;;;;4.90;2.55;;;9.80;55.30;;;;;;5055471;28;20029;-77
2021/01/23 11:40:41;;;;;;;3.65;2.00;;;10.00;54.80;;;;;;5054090;28;20159;-80
2021/01/23 11:43:07;;;;;;;5.30;2.60;;;10.00;53.70;;;;;;5055528;28;20028;-72
2021/01/23 11:45:32;;;;;;;3.58;2.13;;;9.70;53.10;;;;;;5055479;28;20029;-76
2021/01/23 11:47:58;;;;;;;3.92;2.42;;;9.40;52.80;;;;;;5056864;28;20029;-73
2021/01/23 11:50:23;;;;;;;4.30;2.50;;;9.20;53.40;;;;;;5056219;28;20032;-81
2021/01/23 11:52:49;;;;;;;5.22;2.67;;;9.30;53.90;;;;;;5056301;28;20059;-76
2021/01/23 11:55:14;;;;;;;5.88;2.42;;;9.50;54.40;;;;;;5057989;28;20025;-73
2021/01/23 11:57:40;;;;;;;5.55;2.80;;;9.80;53.90;;;;;;5079103;28;20024;-73
2021/01/23 12:00:06;;;;;;;5.43;2.75;;;9.80;52.40;;;;;;5059762;28;20059;-76
2021/01/23 12:02:32;;;;;;;6.05;3.10;;;9.80;53.20;;;;;;5055144;28;20049;-80
2021/01/23 12:04:58;;;;;;;4.65;2.75;;;9.60;51.90;;;;;;5054802;28;20044;-76
2021/01/23 12:07:24;;;;;;;7.10;3.20;;;9.00;52.10;;;;;;5054970;28;20035;-72
2021/01/23 12:09:49;;;;;;;3.58;2.67;;;8.90;53.20;;;;;;5054727;28;20044;-75
2021/01/23 12:12:15;;;;;;;6.32;3.00;;;8.80;53.90;;;;;;5053573;28;20055;-77
2021/01/23 12:14:42;;;;;;;6.15;2.70;;;8.60;54.50;;;;;;5054741;28;20033;-75
2021/01/23 12:17:10;;;;;;;5.63;3.10;;;8.50;54.80;;;;;;5053655;28;20024;-75
2021/01/23 12:19:37;;;;;;;3.55;2.80;;;8.50;55.50;;;;;;5053386;28;20426;-74
2021/01/23 12:22:03;;;;;;;5.30;3.40;;;8.60;55.10;;;;;;5053864;28;20371;-74
2021/01/23 12:24:32;;;;;;;6.38;3.20;;;8.70;55.40;;;;;;5053931;28;20051;-75
2021/01/23 12:27:01;;;;;;;3.85;2.60;;;8.90;55.30;;;;;;5054175;28;20559;-86
2021/01/23 12:29:28;;;;;;;5.70;2.78;;;9.10;54.60;;;;;;5053365;28;20029;-75
2021/01/23 12:31:57;;;;;;;6.70;3.20;;;9.50;53.90;;;;;;5054194;28;20108;-76
2021/01/23 12:34:25;;;;;;;4.78;2.60;;;10.00;53.00;;;;;;5052848;28;20059;-75
2021/01/23 12:36:51;;;;;;;4.28;2.63;;;10.40;52.20;;;;;;5053382;28;20560;-75
2021/01/23 12:39:16;;;;;;;7.82;2.20;;;10.70;51.00;;;;;;5060951;28;20056;-73
2021/01/23 12:41:43;;;;;;;4.63;2.50;;;11.10;49.80;;;;;;5062863;28;20044;-74
2021/01/23 12:44:09;;;;;;;7.07;2.85;;;11.50;49.00;;;;;;5053127;28;20533;-76
2021/01/23 12:46:35;;;;;;;6.28;2.50;;;11.90;47.30;;;;;;5036288;28;20148;-77
2021/01/23 12:49:00;;;;;;;4.85;2.03;;;12.20;46.00;;;;;;5052853;28;20116;-77
2021/01/23 12:51:27;;;;;;;4.63;2.40;;;12.50;44.80;;;;;;5052747;28;20040;-76
2021/01/23 12:53:53;;;;;;;2.75;2.20;;;13.00;43.60;;;;;;5053943;28;20452;-75
2021/01/23 12:56:19;;;;;;;3.97;2.25;;;13.40;42.30;;;;;;5053929;28;20104;-75
2021/01/23 12:58:45;;;;;;;3.88;2.10;;;14.10;41.40;;;;;;5035931;28;20098;-75
2021/01/23 13:01:11;;;;;;;3.47;1.90;;;13.80;40.80;;;;;;5052440;28;20412;-76
2021/01/23 13:03:38;;;;;;;3.78;2.38;;;13.90;39.50;;;;;;5055055;28;20461;-82